METAR AND TAF INFORMATION
METAR FOR UADD
ADDS - METARS form results

(1518 UTC 30 May 2020)
Data provider http://aviationweather.gov/metar/data/
 
METAR text: UADD 301500Z 04003MPS 9999 NSC 26/M01 Q1011 R13/0///65 NOSIG RMK QFE702/0936
Conditions at: UADD (TARAZ , KZ) observed 1500 UTC 30 May 2020
Temperature: 26.0°C (79°F)
Dewpoint: -1.0°C (30°F) [RH = 17%]
Pressure (altimeter): 29.85 inches Hg (1011.0 mb)
Winds: from the NE (40 degrees) at 7 MPH (6 knots; 3.1 m/s)
Visibility: 6 or more miles (10+ km)
Ceiling: at least 12,000 feet AGL
Clouds: sky clear below 12,000 feet AGL
Weather: no significant weather observed at this time

METAR text: UADD 301430Z 03003MPS 9999 NSC 27/M00 Q1011 R13/0///65 NOSIG RMK QFE702/0936
Conditions at: UADD (TARAZ , KZ) observed 1430 UTC 30 May 2020
Temperature: 27.0°C (81°F)
Dewpoint: 0.0°C (32°F) [RH = 17%]
Pressure (altimeter): 29.85 inches Hg (1011.0 mb)
Winds: from the NNE (30 degrees) at 7 MPH (6 knots; 3.1 m/s)
Visibility: 6 or more miles (10+ km)
Ceiling: at least 12,000 feet AGL
Clouds: sky clear below 12,000 feet AGL
Weather: no significant weather observed at this time

Forecast for: UADD (TARAZ , KZ)
Text: TAF UADD 301400Z 3015/3024 06005G10MPS 9999 NSC
Forecast period: 1500 UTC 30 May 2020 to 0000 UTC 31 May 2020
Forecast type: FROM: standard forecast or significant change
Winds: from the ENE (60 degrees) at 12 MPH (10 knots; 5.1 m/s)
gusting to 22 MPH (19 knots; 9.8 m/s)
Visibility: 6 or more miles 10+ km)
Ceiling: unknown
Clouds: missing
Weather: no significant weather forecast for this period

 AIRPORT MAP

 RUNWAY INFORMATION

 AIRPORT FREQUENCIES
Type APP Name APP Frequency 122.1 MHZ
Type TWR Name TWR Frequency 122.1 MHZ

 AIRPORT NEAR NAVIGATION AIDS
Type NDB Name Taraz Frequency 103 KHZ
Type NDB Name Taraz Frequency 103 KHZ



2018 Air Astana Virtual Airline